sensor_id;sensor_type;location;lat;lon;timestamp;P1;durP1;ratioP1;P2;durP2;ratioP2
75916;SDS011;64595;50.148;14.334;2023-09-19T00:00:49;5.13;;;2.60;;
75916;SDS011;64595;50.148;14.334;2023-09-19T00:03:16;7.05;;;2.50;;
75916;SDS011;64595;50.148;14.334;2023-09-19T00:05:42;6.15;;;2.70;;
75916;SDS011;64595;50.148;14.334;2023-09-19T00:08:07;4.80;;;2.30;;
75916;SDS011;64595;50.148;14.334;2023-09-19T00:10:33;5.22;;;2.35;;
75916;SDS011;64595;50.148;14.334;2023-09-19T00:12:58;4.07;;;2.22;;
75916;SDS011;64595;50.148;14.334;2023-09-19T00:15:24;4.95;;;2.38;;
75916;SDS011;64595;50.148;14.334;2023-09-19T00:17:51;3.72;;;2.45;;
75916;SDS011;64595;50.148;14.334;2023-09-19T00:20:18;8.98;;;3.50;;
75916;SDS011;64595;50.148;14.334;2023-09-19T00:22:43;6.63;;;2.70;;
75916;SDS011;64595;50.148;14.334;2023-09-19T00:25:09;3.47;;;2.50;;
75916;SDS011;64595;50.148;14.334;2023-09-19T00:27:35;4.35;;;2.70;;
75916;SDS011;64595;50.148;14.334;2023-09-19T00:30:00;4.57;;;2.42;;
75916;SDS011;64595;50.148;14.334;2023-09-19T00:32:26;5.70;;;2.35;;
75916;SDS011;64595;50.148;14.334;2023-09-19T00:34:51;3.60;;;2.10;;
75916;SDS011;64595;50.148;14.334;2023-09-19T00:37:18;6.45;;;2.75;;
75916;SDS011;64595;50.148;14.334;2023-09-19T00:39:44;3.70;;;2.53;;
75916;SDS011;64595;50.148;14.334;2023-09-19T00:42:09;3.58;;;2.42;;
75916;SDS011;64595;50.148;14.334;2023-09-19T00:47:08;3.47;;;2.23;;
75916;SDS011;64595;50.148;14.334;2023-09-19T00:49:34;3.03;;;2.10;;
75916;SDS011;64595;50.148;14.334;2023-09-19T00:51:59;3.58;;;2.15;;
75916;SDS011;64595;50.148;14.334;2023-09-19T00:54:26;3.78;;;2.38;;
75916;SDS011;64595;50.148;14.334;2023-09-19T00:56:52;3.88;;;2.50;;
75916;SDS011;64595;50.148;14.334;2023-09-19T00:59:17;4.55;;;2.17;;
75916;SDS011;64595;50.148;14.334;2023-09-19T01:01:43;5.63;;;2.40;;
75916;SDS011;64595;50.148;14.334;2023-09-19T01:04:08;8.18;;;2.50;;
75916;SDS011;64595;50.148;14.334;2023-09-19T01:06:34;3.78;;;2.13;;
75916;SDS011;64595;50.148;14.334;2023-09-19T01:09:00;4.00;;;2.45;;
75916;SDS011;64595;50.148;14.334;2023-09-19T01:11:28;4.65;;;2.60;;
75916;SDS011;64595;50.148;14.334;2023-09-19T01:14:03;3.80;;;2.38;;
75916;SDS011;64595;50.148;14.334;2023-09-19T01:16:41;7.38;;;2.75;;
75916;SDS011;64595;50.148;14.334;2023-09-19T01:19:19;3.70;;;2.10;;
75916;SDS011;64595;50.148;14.334;2023-09-19T01:21:55;3.95;;;2.10;;
75916;SDS011;64595;50.148;14.334;2023-09-19T01:24:34;3.95;;;2.33;;
75916;SDS011;64595;50.148;14.334;2023-09-19T01:27:22;3.85;;;2.40;;
75916;SDS011;64595;50.148;14.334;2023-09-19T01:30:00;4.18;;;2.20;;
75916;SDS011;64595;50.148;14.334;2023-09-19T01:32:31;4.40;;;2.10;;
75916;SDS011;64595;50.148;14.334;2023-09-19T01:34:57;3.72;;;1.95;;
75916;SDS011;64595;50.148;14.334;2023-09-19T01:37:22;5.80;;;2.22;;
75916;SDS011;64595;50.148;14.334;2023-09-19T01:39:48;5.50;;;2.40;;
75916;SDS011;64595;50.148;14.334;2023-09-19T01:44:53;4.65;;;1.90;;
75916;SDS011;64595;50.148;14.334;2023-09-19T01:47:23;4.55;;;2.25;;
75916;SDS011;64595;50.148;14.334;2023-09-19T01:49:55;4.43;;;2.08;;
75916;SDS011;64595;50.148;14.334;2023-09-19T01:52:22;3.65;;;2.38;;
75916;SDS011;64595;50.148;14.334;2023-09-19T01:54:50;4.45;;;2.30;;
75916;SDS011;64595;50.148;14.334;2023-09-19T01:57:20;5.28;;;2.10;;
75916;SDS011;64595;50.148;14.334;2023-09-19T01:59:50;4.00;;;2.03;;
75916;SDS011;64595;50.148;14.334;2023-09-19T02:02:19;3.53;;;2.10;;
75916;SDS011;64595;50.148;14.334;2023-09-19T02:04:47;5.57;;;2.03;;
75916;SDS011;64595;50.148;14.334;2023-09-19T02:07:13;3.83;;;2.17;;
75916;SDS011;64595;50.148;14.334;2023-09-19T02:09:39;3.38;;;1.90;;
75916;SDS011;64595;50.148;14.334;2023-09-19T02:12:05;2.90;;;2.00;;
75916;SDS011;64595;50.148;14.334;2023-09-19T02:14:31;5.15;;;2.78;;
75916;SDS011;64595;50.148;14.334;2023-09-19T02:16:56;3.63;;;1.95;;
75916;SDS011;64595;50.148;14.334;2023-09-19T02:19:29;3.25;;;2.13;;
75916;SDS011;64595;50.148;14.334;2023-09-19T02:21:56;4.07;;;2.20;;
75916;SDS011;64595;50.148;14.334;2023-09-19T02:24:22;4.47;;;2.20;;
75916;SDS011;64595;50.148;14.334;2023-09-19T02:26:47;4.82;;;2.47;;
75916;SDS011;64595;50.148;14.334;2023-09-19T02:29:13;4.10;;;2.08;;
75916;SDS011;64595;50.148;14.334;2023-09-19T02:31:38;3.83;;;2.40;;
75916;SDS011;64595;50.148;14.334;2023-09-19T02:34:04;5.00;;;2.45;;
75916;SDS011;64595;50.148;14.334;2023-09-19T02:36:29;3.55;;;2.20;;
75916;SDS011;64595;50.148;14.334;2023-09-19T02:38:56;3.40;;;2.30;;
75916;SDS011;64595;50.148;14.334;2023-09-19T02:41:22;4.68;;;2.28;;
75916;SDS011;64595;50.148;14.334;2023-09-19T02:43:47;4.13;;;2.33;;
75916;SDS011;64595;50.148;14.334;2023-09-19T02:46:13;3.53;;;2.30;;
75916;SDS011;64595;50.148;14.334;2023-09-19T02:48:39;3.92;;;2.17;;
75916;SDS011;64595;50.148;14.334;2023-09-19T02:51:04;3.10;;;2.10;;
75916;SDS011;64595;50.148;14.334;2023-09-19T02:53:30;4.18;;;2.40;;
75916;SDS011;64595;50.148;14.334;2023-09-19T02:55:57;4.25;;;2.40;;
75916;SDS011;64595;50.148;14.334;2023-09-19T02:58:22;5.18;;;2.70;;
75916;SDS011;64595;50.148;14.334;2023-09-19T03:00:48;4.75;;;2.30;;
75916;SDS011;64595;50.148;14.334;2023-09-19T03:03:13;5.57;;;2.40;;
75916;SDS011;64595;50.148;14.334;2023-09-19T03:05:39;4.63;;;2.30;;
75916;SDS011;64595;50.148;14.334;2023-09-19T03:08:04;4.50;;;2.17;;
75916;SDS011;64595;50.148;14.334;2023-09-19T03:10:30;5.43;;;2.60;;
75916;SDS011;64595;50.148;14.334;2023-09-19T03:12:57;3.90;;;2.50;;
75916;SDS011;64595;50.148;14.334;2023-09-19T03:15:23;3.15;;;2.60;;
75916;SDS011;64595;50.148;14.334;2023-09-19T03:17:49;4.97;;;2.20;;
75916;SDS011;64595;50.148;14.334;2023-09-19T03:20:15;3.20;;;2.50;;
75916;SDS011;64595;50.148;14.334;2023-09-19T03:22:41;5.70;;;2.75;;
75916;SDS011;64595;50.148;14.334;2023-09-19T03:25:07;3.58;;;2.50;;
75916;SDS011;64595;50.148;14.334;2023-09-19T03:27:32;3.95;;;2.67;;
75916;SDS011;64595;50.148;14.334;2023-09-19T03:29:59;4.78;;;2.70;;
75916;SDS011;64595;50.148;14.334;2023-09-19T03:32:25;3.92;;;2.55;;
75916;SDS011;64595;50.148;14.334;2023-09-19T03:34:50;4.47;;;2.53;;
75916;SDS011;64595;50.148;14.334;2023-09-19T03:37:16;5.35;;;3.03;;
75916;SDS011;64595;50.148;14.334;2023-09-19T03:39:41;4.32;;;3.17;;
75916;SDS011;64595;50.148;14.334;2023-09-19T03:42:07;6.63;;;3.00;;
75916;SDS011;64595;50.148;14.334;2023-09-19T03:44:32;5.72;;;2.90;;
75916;SDS011;64595;50.148;14.334;2023-09-19T03:46:59;4.53;;;3.35;;
75916;SDS011;64595;50.148;14.334;2023-09-19T03:49:25;4.35;;;3.05;;
75916;SDS011;64595;50.148;14.334;2023-09-19T03:51:50;4.75;;;3.10;;
75916;SDS011;64595;50.148;14.334;2023-09-19T03:54:16;4.50;;;3.30;;
75916;SDS011;64595;50.148;14.334;2023-09-19T03:56:41;4.93;;;3.15;;
75916;SDS011;64595;50.148;14.334;2023-09-19T03:59:07;4.93;;;3.00;;
75916;SDS011;64595;50.148;14.334;2023-09-19T04:01:32;3.70;;;3.00;;
75916;SDS011;64595;50.148;14.334;2023-09-19T04:03:59;7.15;;;3.63;;
75916;SDS011;64595;50.148;14.334;2023-09-19T04:06:25;5.50;;;3.50;;
75916;SDS011;64595;50.148;14.334;2023-09-19T04:08:50;5.13;;;3.22;;
75916;SDS011;64595;50.148;14.334;2023-09-19T04:11:16;6.47;;;3.97;;
75916;SDS011;64595;50.148;14.334;2023-09-19T04:13:41;9.27;;;3.70;;
75916;SDS011;64595;50.148;14.334;2023-09-19T04:16:06;6.47;;;4.07;;
75916;SDS011;64595;50.148;14.334;2023-09-19T04:18:32;5.43;;;3.55;;
75916;SDS011;64595;50.148;14.334;2023-09-19T04:20:59;8.93;;;3.58;;
75916;SDS011;64595;50.148;14.334;2023-09-19T04:23:24;5.88;;;3.70;;
75916;SDS011;64595;50.148;14.334;2023-09-19T04:25:50;6.78;;;4.05;;
75916;SDS011;64595;50.148;14.334;2023-09-19T04:28:16;7.13;;;3.97;;
75916;SDS011;64595;50.148;14.334;2023-09-19T04:30:41;7.18;;;3.35;;
75916;SDS011;64595;50.148;14.334;2023-09-19T04:33:07;9.32;;;3.90;;
75916;SDS011;64595;50.148;14.334;2023-09-19T04:35:33;5.97;;;3.63;;
75916;SDS011;64595;50.148;14.334;2023-09-19T04:38:00;6.55;;;3.92;;
75916;SDS011;64595;50.148;14.334;2023-09-19T04:40:26;8.65;;;3.85;;
75916;SDS011;64595;50.148;14.334;2023-09-19T04:42:52;10.27;;;3.95;;
75916;SDS011;64595;50.148;14.334;2023-09-19T04:45:18;6.47;;;4.28;;
75916;SDS011;64595;50.148;14.334;2023-09-19T04:47:44;6.38;;;3.80;;
75916;SDS011;64595;50.148;14.334;2023-09-19T04:50:09;8.45;;;3.88;;
75916;SDS011;64595;50.148;14.334;2023-09-19T04:52:35;6.47;;;3.10;;
75916;SDS011;64595;50.148;14.334;2023-09-19T04:55:05;4.45;;;2.90;;
75916;SDS011;64595;50.148;14.334;2023-09-19T04:57:31;7.72;;;3.05;;
75916;SDS011;64595;50.148;14.334;2023-09-19T04:59:56;6.00;;;3.17;;
75916;SDS011;64595;50.148;14.334;2023-09-19T05:02:22;5.78;;;3.28;;
75916;SDS011;64595;50.148;14.334;2023-09-19T05:04:47;5.15;;;2.95;;
75916;SDS011;64595;50.148;14.334;2023-09-19T05:07:13;4.38;;;2.92;;
75916;SDS011;64595;50.148;14.334;2023-09-19T05:09:38;8.80;;;4.05;;
75916;SDS011;64595;50.148;14.334;2023-09-19T05:12:06;4.97;;;3.03;;
75916;SDS011;64595;50.148;14.334;2023-09-19T05:14:31;4.30;;;3.13;;
75916;SDS011;64595;50.148;14.334;2023-09-19T05:16:57;10.55;;;3.40;;
75916;SDS011;64595;50.148;14.334;2023-09-19T05:19:22;8.98;;;2.83;;
75916;SDS011;64595;50.148;14.334;2023-09-19T05:21:48;6.65;;;3.28;;
75916;SDS011;64595;50.148;14.334;2023-09-19T05:24:13;5.05;;;3.22;;
75916;SDS011;64595;50.148;14.334;2023-09-19T05:26:47;5.82;;;3.28;;
75916;SDS011;64595;50.148;14.334;2023-09-19T05:29:14;7.63;;;3.20;;
75916;SDS011;64595;50.148;14.334;2023-09-19T05:31:39;4.00;;;2.83;;
75916;SDS011;64595;50.148;14.334;2023-09-19T05:34:05;5.20;;;3.25;;
75916;SDS011;64595;50.148;14.334;2023-09-19T05:36:30;5.78;;;3.00;;
75916;SDS011;64595;50.148;14.334;2023-09-19T05:38:56;9.00;;;3.25;;
75916;SDS011;64595;50.148;14.334;2023-09-19T05:41:21;4.57;;;2.85;;
75916;SDS011;64595;50.148;14.334;2023-09-19T05:43:48;4.88;;;2.88;;
75916;SDS011;64595;50.148;14.334;2023-09-19T05:46:15;4.28;;;2.88;;
75916;SDS011;64595;50.148;14.334;2023-09-19T05:48:41;4.30;;;2.55;;
75916;SDS011;64595;50.148;14.334;2023-09-19T05:51:06;5.22;;;3.17;;
75916;SDS011;64595;50.148;14.334;2023-09-19T05:53:32;3.88;;;3.10;;
75916;SDS011;64595;50.148;14.334;2023-09-19T05:55:57;5.75;;;2.70;;
75916;SDS011;64595;50.148;14.334;2023-09-19T05:58:23;5.57;;;2.72;;
75916;SDS011;64595;50.148;14.334;2023-09-19T06:00:48;5.55;;;2.97;;
75916;SDS011;64595;50.148;14.334;2023-09-19T06:03:15;4.40;;;2.65;;
75916;SDS011;64595;50.148;14.334;2023-09-19T06:05:41;4.45;;;2.80;;
75916;SDS011;64595;50.148;14.334;2023-09-19T06:08:06;4.60;;;3.13;;
75916;SDS011;64595;50.148;14.334;2023-09-19T06:10:32;4.88;;;2.97;;
75916;SDS011;64595;50.148;14.334;2023-09-19T06:12:57;3.40;;;2.50;;
75916;SDS011;64595;50.148;14.334;2023-09-19T06:15:23;5.03;;;2.60;;
75916;SDS011;64595;50.148;14.334;2023-09-19T06:17:49;3.90;;;2.90;;
75916;SDS011;64595;50.148;14.334;2023-09-19T06:20:16;6.50;;;2.47;;
75916;SDS011;64595;50.148;14.334;2023-09-19T06:25:08;3.97;;;2.70;;
75916;SDS011;64595;50.148;14.334;2023-09-19T06:27:34;3.50;;;2.50;;
75916;SDS011;64595;50.148;14.334;2023-09-19T06:29:59;4.97;;;3.00;;
75916;SDS011;64595;50.148;14.334;2023-09-19T06:32:29;4.10;;;2.50;;
75916;SDS011;64595;50.148;14.334;2023-09-19T06:34:54;3.83;;;2.63;;
75916;SDS011;64595;50.148;14.334;2023-09-19T06:37:21;4.82;;;2.47;;
75916;SDS011;64595;50.148;14.334;2023-09-19T06:39:47;5.03;;;2.55;;
75916;SDS011;64595;50.148;14.334;2023-09-19T06:42:12;5.80;;;2.58;;
75916;SDS011;64595;50.148;14.334;2023-09-19T06:44:38;4.32;;;2.80;;
75916;SDS011;64595;50.148;14.334;2023-09-19T06:47:03;8.05;;;3.05;;
75916;SDS011;64595;50.148;14.334;2023-09-19T06:49:29;5.35;;;2.45;;
75916;SDS011;64595;50.148;14.334;2023-09-19T06:51:54;4.70;;;2.80;;
75916;SDS011;64595;50.148;14.334;2023-09-19T06:54:21;4.00;;;2.35;;
75916;SDS011;64595;50.148;14.334;2023-09-19T06:56:47;5.55;;;2.40;;
75916;SDS011;64595;50.148;14.334;2023-09-19T06:59:12;5.32;;;2.55;;
75916;SDS011;64595;50.148;14.334;2023-09-19T07:01:38;4.13;;;2.40;;
75916;SDS011;64595;50.148;14.334;2023-09-19T07:04:03;4.10;;;2.70;;
75916;SDS011;64595;50.148;14.334;2023-09-19T07:06:29;4.65;;;2.60;;
75916;SDS011;64595;50.148;14.334;2023-09-19T07:08:55;5.22;;;2.30;;
75916;SDS011;64595;50.148;14.334;2023-09-19T07:11:22;2.95;;;2.50;;
75916;SDS011;64595;50.148;14.334;2023-09-19T07:13:47;4.45;;;2.50;;
75916;SDS011;64595;50.148;14.334;2023-09-19T07:16:13;4.07;;;2.45;;
75916;SDS011;64595;50.148;14.334;2023-09-19T07:18:38;4.63;;;2.60;;
75916;SDS011;64595;50.148;14.334;2023-09-19T07:21:04;5.57;;;2.72;;
75916;SDS011;64595;50.148;14.334;2023-09-19T07:23:29;4.38;;;2.53;;
75916;SDS011;64595;50.148;14.334;2023-09-19T07:25:56;3.63;;;2.38;;
75916;SDS011;64595;50.148;14.334;2023-09-19T07:28:23;3.67;;;2.38;;
75916;SDS011;64595;50.148;14.334;2023-09-19T07:30:48;3.75;;;2.17;;
75916;SDS011;64595;50.148;14.334;2023-09-19T07:33:14;4.80;;;2.70;;
75916;SDS011;64595;50.148;14.334;2023-09-19T07:35:39;4.78;;;2.63;;
75916;SDS011;64595;50.148;14.334;2023-09-19T07:38:05;4.78;;;2.58;;
75916;SDS011;64595;50.148;14.334;2023-09-19T07:40:30;5.22;;;2.38;;
75916;SDS011;64595;50.148;14.334;2023-09-19T07:42:56;2.85;;;2.22;;
75916;SDS011;64595;50.148;14.334;2023-09-19T07:45:23;4.57;;;2.30;;
75916;SDS011;64595;50.148;14.334;2023-09-19T07:47:50;5.25;;;2.40;;
75916;SDS011;64595;50.148;14.334;2023-09-19T07:52:41;4.03;;;2.05;;
75916;SDS011;64595;50.148;14.334;2023-09-19T07:55:07;6.55;;;2.63;;
75916;SDS011;64595;50.148;14.334;2023-09-19T07:57:33;7.30;;;2.55;;
75916;SDS011;64595;50.148;14.334;2023-09-19T07:59:58;4.25;;;2.90;;
75916;SDS011;64595;50.148;14.334;2023-09-19T08:02:25;3.17;;;2.28;;
75916;SDS011;64595;50.148;14.334;2023-09-19T08:04:50;3.92;;;2.20;;
75916;SDS011;64595;50.148;14.334;2023-09-19T08:07:16;4.53;;;2.47;;
75916;SDS011;64595;50.148;14.334;2023-09-19T08:09:41;3.55;;;2.30;;
75916;SDS011;64595;50.148;14.334;2023-09-19T08:12:07;3.95;;;2.17;;
75916;SDS011;64595;50.148;14.334;2023-09-19T08:14:33;3.95;;;2.47;;
75916;SDS011;64595;50.148;14.334;2023-09-19T08:16:59;5.80;;;2.50;;
75916;SDS011;64595;50.148;14.334;2023-09-19T08:19:26;8.32;;;2.67;;
75916;SDS011;64595;50.148;14.334;2023-09-19T08:21:51;5.25;;;2.35;;
75916;SDS011;64595;50.148;14.334;2023-09-19T08:24:17;4.78;;;2.40;;
75916;SDS011;64595;50.148;14.334;2023-09-19T08:26:42;3.22;;;2.20;;
75916;SDS011;64595;50.148;14.334;2023-09-19T08:29:08;4.78;;;2.40;;
75916;SDS011;64595;50.148;14.334;2023-09-19T08:31:33;7.00;;;2.60;;
75916;SDS011;64595;50.148;14.334;2023-09-19T08:33:59;3.95;;;2.55;;
75916;SDS011;64595;50.148;14.334;2023-09-19T08:36:26;3.22;;;2.42;;
75916;SDS011;64595;50.148;14.334;2023-09-19T08:38:52;4.63;;;2.30;;
75916;SDS011;64595;50.148;14.334;2023-09-19T08:41:17;4.35;;;2.13;;
75916;SDS011;64595;50.148;14.334;2023-09-19T08:43:43;3.65;;;2.63;;
75916;SDS011;64595;50.148;14.334;2023-09-19T08:46:09;3.05;;;2.17;;
75916;SDS011;64595;50.148;14.334;2023-09-19T08:48:36;5.13;;;2.30;;
75916;SDS011;64595;50.148;14.334;2023-09-19T08:51:06;4.10;;;2.55;;
75916;SDS011;64595;50.148;14.334;2023-09-19T08:53:36;2.85;;;2.20;;
75916;SDS011;64595;50.148;14.334;2023-09-19T08:56:07;4.65;;;2.90;;
75916;SDS011;64595;50.148;14.334;2023-09-19T08:58:34;4.90;;;2.42;;
75916;SDS011;64595;50.148;14.334;2023-09-19T09:01:06;8.45;;;2.72;;
75916;SDS011;64595;50.148;14.334;2023-09-19T09:03:32;3.63;;;2.45;;
75916;SDS011;64595;50.148;14.334;2023-09-19T09:05:59;3.65;;;2.20;;
75916;SDS011;64595;50.148;14.334;2023-09-19T09:08:25;3.38;;;2.33;;
75916;SDS011;64595;50.148;14.334;2023-09-19T09:10:52;4.57;;;2.20;;
75916;SDS011;64595;50.148;14.334;2023-09-19T09:13:17;3.65;;;2.40;;
75916;SDS011;64595;50.148;14.334;2023-09-19T09:15:43;4.38;;;2.13;;
75916;SDS011;64595;50.148;14.334;2023-09-19T09:18:08;3.85;;;2.15;;
75916;SDS011;64595;50.148;14.334;2023-09-19T09:20:34;4.28;;;2.30;;
75916;SDS011;64595;50.148;14.334;2023-09-19T09:22:59;4.95;;;2.20;;
75916;SDS011;64595;50.148;14.334;2023-09-19T09:25:29;3.83;;;2.40;;
75916;SDS011;64595;50.148;14.334;2023-09-19T09:28:13;4.38;;;2.38;;
75916;SDS011;64595;50.148;14.334;2023-09-19T09:30:44;3.22;;;2.53;;
75916;SDS011;64595;50.148;14.334;2023-09-19T09:33:10;3.47;;;2.30;;
75916;SDS011;64595;50.148;14.334;2023-09-19T09:35:36;5.20;;;2.55;;
75916;SDS011;64595;50.148;14.334;2023-09-19T09:38:02;4.20;;;2.08;;
75916;SDS011;64595;50.148;14.334;2023-09-19T09:40:27;3.05;;;2.28;;
75916;SDS011;64595;50.148;14.334;2023-09-19T09:43:24;4.22;;;2.35;;
75916;SDS011;64595;50.148;14.334;2023-09-19T09:45:55;3.10;;;2.00;;
75916;SDS011;64595;50.148;14.334;2023-09-19T09:48:32;3.67;;;2.17;;
75916;SDS011;64595;50.148;14.334;2023-09-19T09:50:57;3.70;;;2.05;;
75916;SDS011;64595;50.148;14.334;2023-09-19T09:53:23;4.35;;;2.25;;
75916;SDS011;64595;50.148;14.334;2023-09-19T09:55:59;3.33;;;2.05;;
75916;SDS011;64595;50.148;14.334;2023-09-19T09:58:27;3.58;;;2.05;;
75916;SDS011;64595;50.148;14.334;2023-09-19T10:00:53;7.53;;;2.10;;
75916;SDS011;64595;50.148;14.334;2023-09-19T10:03:19;3.22;;;2.03;;
75916;SDS011;64595;50.148;14.334;2023-09-19T10:05:45;4.28;;;2.28;;
75916;SDS011;64595;50.148;14.334;2023-09-19T10:08:11;4.00;;;2.13;;
75916;SDS011;64595;50.148;14.334;2023-09-19T10:10:37;3.45;;;1.90;;
75916;SDS011;64595;50.148;14.334;2023-09-19T10:13:03;4.18;;;2.22;;
75916;SDS011;64595;50.148;14.334;2023-09-19T10:15:32;3.58;;;1.98;;
75916;SDS011;64595;50.148;14.334;2023-09-19T10:17:59;3.25;;;1.90;;
75916;SDS011;64595;50.148;14.334;2023-09-19T10:20:26;2.88;;;1.90;;
75916;SDS011;64595;50.148;14.334;2023-09-19T10:22:51;2.40;;;1.90;;
75916;SDS011;64595;50.148;14.334;2023-09-19T10:25:18;2.20;;;1.70;;
75916;SDS011;64595;50.148;14.334;2023-09-19T10:27:44;4.43;;;1.83;;
75916;SDS011;64595;50.148;14.334;2023-09-19T10:30:10;3.15;;;2.00;;
75916;SDS011;64595;50.148;14.334;2023-09-19T10:32:37;3.38;;;1.80;;
75916;SDS011;64595;50.148;14.334;2023-09-19T10:35:05;2.88;;;1.95;;
75916;SDS011;64595;50.148;14.334;2023-09-19T10:37:31;3.97;;;2.00;;
75916;SDS011;64595;50.148;14.334;2023-09-19T10:39:57;2.65;;;1.90;;
75916;SDS011;64595;50.148;14.334;2023-09-19T10:42:23;3.28;;;2.00;;
75916;SDS011;64595;50.148;14.334;2023-09-19T10:44:51;4.72;;;2.47;;
75916;SDS011;64595;50.148;14.334;2023-09-19T10:47:17;4.25;;;1.90;;
75916;SDS011;64595;50.148;14.334;2023-09-19T10:49:44;2.92;;;1.80;;
75916;SDS011;64595;50.148;14.334;2023-09-19T10:52:10;3.10;;;2.42;;
75916;SDS011;64595;50.148;14.334;2023-09-19T10:54:36;3.88;;;2.13;;
75916;SDS011;64595;50.148;14.334;2023-09-19T10:57:01;4.45;;;2.50;;
75916;SDS011;64595;50.148;14.334;2023-09-19T10:59:27;3.05;;;2.10;;
75916;SDS011;64595;50.148;14.334;2023-09-19T11:01:53;6.45;;;5.20;;
75916;SDS011;64595;50.148;14.334;2023-09-19T11:06:51;2.60;;;2.00;;
75916;SDS011;64595;50.148;14.334;2023-09-19T11:11:50;3.07;;;1.97;;
75916;SDS011;64595;50.148;14.334;2023-09-19T11:14:28;3.10;;;1.98;;
75916;SDS011;64595;50.148;14.334;2023-09-19T11:20:20;2.90;;;1.98;;
75916;SDS011;64595;50.148;14.334;2023-09-19T11:23:18;2.80;;;1.90;;
75916;SDS011;64595;50.148;14.334;2023-09-19T11:25:47;3.40;;;1.90;;
75916;SDS011;64595;50.148;14.334;2023-09-19T11:28:27;3.25;;;1.90;;
75916;SDS011;64595;50.148;14.334;2023-09-19T11:30:56;3.00;;;1.85;;
75916;SDS011;64595;50.148;14.334;2023-09-19T11:33:22;3.95;;;2.05;;
75916;SDS011;64595;50.148;14.334;2023-09-19T11:36:01;2.30;;;1.60;;
75916;SDS011;64595;50.148;14.334;2023-09-19T11:41:39;4.35;;;2.22;;
75916;SDS011;64595;50.148;14.334;2023-09-19T11:47:01;3.38;;;1.85;;
75916;SDS011;64595;50.148;14.334;2023-09-19T11:49:28;3.20;;;1.80;;
75916;SDS011;64595;50.148;14.334;2023-09-19T11:54:20;3.03;;;1.90;;
75916;SDS011;64595;50.148;14.334;2023-09-19T11:56:46;4.10;;;1.55;;
75916;SDS011;64595;50.148;14.334;2023-09-19T12:01:42;3.03;;;1.60;;
75916;SDS011;64595;50.148;14.334;2023-09-19T12:04:08;2.35;;;1.60;;
75916;SDS011;64595;50.148;14.334;2023-09-19T12:06:36;4.10;;;1.80;;
75916;SDS011;64595;50.148;14.334;2023-09-19T12:09:02;2.60;;;1.80;;
75916;SDS011;64595;50.148;14.334;2023-09-19T12:11:30;2.53;;;1.80;;
75916;SDS011;64595;50.148;14.334;2023-09-19T12:13:56;2.78;;;2.05;;
75916;SDS011;64595;50.148;14.334;2023-09-19T12:16:21;2.30;;;1.63;;
75916;SDS011;64595;50.148;14.334;2023-09-19T12:18:47;5.57;;;2.22;;
75916;SDS011;64595;50.148;14.334;2023-09-19T12:21:26;2.83;;;1.70;;
75916;SDS011;64595;50.148;14.334;2023-09-19T12:23:59;4.75;;;1.80;;
75916;SDS011;64595;50.148;14.334;2023-09-19T12:26:40;3.92;;;1.90;;
75916;SDS011;64595;50.148;14.334;2023-09-19T12:29:10;2.30;;;1.63;;
75916;SDS011;64595;50.148;14.334;2023-09-19T12:31:37;4.63;;;2.00;;
75916;SDS011;64595;50.148;14.334;2023-09-19T12:34:02;2.90;;;1.80;;
75916;SDS011;64595;50.148;14.334;2023-09-19T12:36:28;4.38;;;1.90;;
75916;SDS011;64595;50.148;14.334;2023-09-19T12:38:53;3.25;;;1.90;;
75916;SDS011;64595;50.148;14.334;2023-09-19T12:41:19;4.25;;;2.20;;
75916;SDS011;64595;50.148;14.334;2023-09-19T12:43:46;4.25;;;1.85;;
75916;SDS011;64595;50.148;14.334;2023-09-19T12:46:11;2.90;;;1.92;;
75916;SDS011;64595;50.148;14.334;2023-09-19T12:48:37;3.25;;;1.77;;
75916;SDS011;64595;50.148;14.334;2023-09-19T12:51:03;2.85;;;1.70;;
75916;SDS011;64595;50.148;14.334;2023-09-19T12:55:58;5.70;;;2.17;;
75916;SDS011;64595;50.148;14.334;2023-09-19T12:58:23;3.20;;;2.08;;
75916;SDS011;64595;50.148;14.334;2023-09-19T13:00:50;2.70;;;1.70;;
75916;SDS011;64595;50.148;14.334;2023-09-19T13:03:17;3.00;;;2.10;;
75916;SDS011;64595;50.148;14.334;2023-09-19T13:05:52;3.00;;;1.75;;
75916;SDS011;64595;50.148;14.334;2023-09-19T13:08:18;3.00;;;1.90;;
75916;SDS011;64595;50.148;14.334;2023-09-19T13:10:59;3.25;;;2.00;;
75916;SDS011;64595;50.148;14.334;2023-09-19T13:13:28;2.55;;;1.77;;
75916;SDS011;64595;50.148;14.334;2023-09-19T13:15:55;3.30;;;1.98;;
75916;SDS011;64595;50.148;14.334;2023-09-19T13:18:21;2.72;;;1.83;;
75916;SDS011;64595;50.148;14.334;2023-09-19T13:20:55;3.95;;;2.20;;
75916;SDS011;64595;50.148;14.334;2023-09-19T13:23:30;2.58;;;1.83;;
75916;SDS011;64595;50.148;14.334;2023-09-19T13:25:56;2.67;;;1.80;;
75916;SDS011;64595;50.148;14.334;2023-09-19T13:28:21;4.18;;;1.80;;
75916;SDS011;64595;50.148;14.334;2023-09-19T13:30:46;2.58;;;1.70;;
75916;SDS011;64595;50.148;14.334;2023-09-19T13:33:13;3.78;;;1.80;;
75916;SDS011;64595;50.148;14.334;2023-09-19T13:35:39;3.97;;;2.20;;
75916;SDS011;64595;50.148;14.334;2023-09-19T13:38:04;3.03;;;1.80;;
75916;SDS011;64595;50.148;14.334;2023-09-19T13:40:30;2.10;;;1.50;;
75916;SDS011;64595;50.148;14.334;2023-09-19T13:42:55;2.53;;;1.85;;
75916;SDS011;64595;50.148;14.334;2023-09-19T13:45:21;2.60;;;1.88;;
75916;SDS011;64595;50.148;14.334;2023-09-19T13:47:47;4.55;;;1.88;;
75916;SDS011;64595;50.148;14.334;2023-09-19T13:50:13;3.17;;;2.00;;
75916;SDS011;64595;50.148;14.334;2023-09-19T13:52:39;2.58;;;1.65;;
75916;SDS011;64595;50.148;14.334;2023-09-19T13:55:05;2.40;;;1.63;;
75916;SDS011;64595;50.148;14.334;2023-09-19T13:57:31;3.15;;;1.50;;
75916;SDS011;64595;50.148;14.334;2023-09-19T13:59:56;2.20;;;1.70;;
75916;SDS011;64595;50.148;14.334;2023-09-19T14:02:22;7.07;;;2.20;;
75916;SDS011;64595;50.148;14.334;2023-09-19T14:04:47;5.03;;;2.08;;
75916;SDS011;64595;50.148;14.334;2023-09-19T14:07:14;3.72;;;1.77;;
75916;SDS011;64595;50.148;14.334;2023-09-19T14:09:40;2.70;;;1.90;;
75916;SDS011;64595;50.148;14.334;2023-09-19T14:12:06;4.47;;;1.70;;
75916;SDS011;64595;50.148;14.334;2023-09-19T14:14:31;3.67;;;2.00;;
75916;SDS011;64595;50.148;14.334;2023-09-19T14:16:57;2.50;;;1.67;;
75916;SDS011;64595;50.148;14.334;2023-09-19T14:19:22;3.33;;;1.80;;
75916;SDS011;64595;50.148;14.334;2023-09-19T14:21:48;2.42;;;1.58;;
75916;SDS011;64595;50.148;14.334;2023-09-19T14:24:17;2.70;;;1.70;;
75916;SDS011;64595;50.148;14.334;2023-09-19T14:26:43;4.18;;;1.63;;
75916;SDS011;64595;50.148;14.334;2023-09-19T14:29:08;4.03;;;1.77;;
75916;SDS011;64595;50.148;14.334;2023-09-19T14:31:34;3.08;;;1.92;;
75916;SDS011;64595;50.148;14.334;2023-09-19T14:34:02;3.38;;;1.95;;
75916;SDS011;64595;50.148;14.334;2023-09-19T14:36:27;3.17;;;1.70;;
75916;SDS011;64595;50.148;14.334;2023-09-19T14:38:53;2.67;;;1.58;;
75916;SDS011;64595;50.148;14.334;2023-09-19T14:41:20;2.60;;;1.65;;
75916;SDS011;64595;50.148;14.334;2023-09-19T14:46:10;3.20;;;2.00;;
75916;SDS011;64595;50.148;14.334;2023-09-19T14:48:36;3.50;;;1.90;;
75916;SDS011;64595;50.148;14.334;2023-09-19T14:51:02;2.50;;;1.73;;
75916;SDS011;64595;50.148;14.334;2023-09-19T14:53:28;3.35;;;1.75;;
75916;SDS011;64595;50.148;14.334;2023-09-19T14:55:53;3.33;;;1.75;;
75916;SDS011;64595;50.148;14.334;2023-09-19T14:58:20;4.38;;;1.83;;
75916;SDS011;64595;50.148;14.334;2023-09-19T15:00:46;3.00;;;1.75;;
75916;SDS011;64595;50.148;14.334;2023-09-19T15:03:11;4.65;;;1.85;;
75916;SDS011;64595;50.148;14.334;2023-09-19T15:05:37;3.55;;;1.85;;